Weather at Bergerac-Roumanière Airport

Public forecast

Using degrees Celsius for public forecast. Weather courtesy of forecast.io.

Current aviation weather report (METAR) for Bergerac-Roumanière Airport

Retrieved 2020/11/23 18:30 UTC (0 seconds ago):

LFBE 231830Z AUTO 16002KT 6000 NSC 04/03 Q1028 NOSIG

Aviation forecast (TAF) for Bergerac-Roumanière Airport

Retrieved 2020/11/23 18:21 UTC (0 seconds ago):

TAF LFBE 231700Z 2318/2418 07005KT CAVOK PROB40 2322/2408 3000 BR PROB30 2403/2407 0500 FG VV/// BECMG 2415/2417 15010KT